Time;durP1;ratioP1;P1;durP2;ratioP2;P2;SDS_P1;SDS_P2;PMS_P1;PMS_P2;Temp;Humidity;BMP_temperature;BMP_pressure;BME280_temperature;BME280_humidity;BME280_pressure;Samples;Min_cycle;Max_cycle;Signal;HPM_P1;HPM_P2
2021/11/28 00:01:54;;;;;;;4.17;3.33;;;1.60;99.90;;;;;;4976194;28;20866;-66
2021/11/28 00:04:21;;;;;;;7.70;4.10;;;1.60;99.90;;;;;;4976096;28;20796;-66
2021/11/28 00:07:01;;;;;;;4.67;3.47;;;1.70;99.90;;;;;;4975778;28;20832;-66
2021/11/28 00:09:43;;;;;;;3.83;3.47;;;1.70;99.90;;;;;;4975116;28;20420;-66
2021/11/28 00:14:50;;;;;;;3.80;3.00;;;1.70;99.90;;;;;;4976653;28;20462;-67
2021/11/28 00:17:15;;;;;;;5.50;4.07;;;1.60;99.90;;;;;;4990463;28;20511;-67
2021/11/28 00:19:41;;;;;;;3.23;3.03;;;1.60;99.90;;;;;;4990843;28;20518;-68
2021/11/28 00:22:07;;;;;;;7.00;3.70;;;1.60;99.90;;;;;;4975537;28;20704;-68
2021/11/28 00:24:34;;;;;;;7.17;3.00;;;1.70;99.90;;;;;;4975543;28;20181;-67
2021/11/28 00:27:01;;;;;;;3.90;3.53;;;1.70;99.90;;;;;;4975404;28;20454;-68
2021/11/28 00:29:27;;;;;;;5.33;2.90;;;1.70;99.90;;;;;;4975623;28;20514;-68
2021/11/28 00:31:55;;;;;;;8.83;5.77;;;1.70;99.90;;;;;;4975602;28;20828;-68
2021/11/28 00:34:22;;;;;;;5.23;3.00;;;1.70;99.90;;;;;;4990353;28;20459;-68
2021/11/28 00:36:48;;;;;;;5.10;3.80;;;1.70;99.90;;;;;;4975634;28;20427;-67
2021/11/28 00:39:13;;;;;;;5.40;3.23;;;1.80;99.90;;;;;;4975326;28;20420;-68
2021/11/28 00:41:39;;;;;;;3.37;3.10;;;1.70;99.90;;;;;;4975466;28;20232;-68
2021/11/28 00:44:04;;;;;;;5.13;2.87;;;1.70;99.90;;;;;;4975442;28;20626;-68
2021/11/28 00:46:32;;;;;;;3.73;2.80;;;1.80;99.90;;;;;;4975537;28;20180;-68
2021/11/28 00:48:59;;;;;;;7.23;2.90;;;1.70;99.90;;;;;;4975298;28;20720;-67
2021/11/28 00:51:35;;;;;;;7.27;3.43;;;1.70;99.90;;;;;;4975217;28;20427;-68
2021/11/28 00:54:01;;;;;;;4.47;3.30;;;1.80;99.90;;;;;;4975035;28;20462;-68
2021/11/28 00:56:26;;;;;;;4.23;3.03;;;1.80;99.90;;;;;;4974837;28;20486;-68
2021/11/28 00:58:52;;;;;;;3.43;2.60;;;1.70;99.90;;;;;;4975060;28;20415;-68
2021/11/28 01:01:18;;;;;;;5.03;2.80;;;1.80;99.90;;;;;;4975248;28;20181;-68
2021/11/28 01:03:44;;;;;;;4.73;3.83;;;1.80;99.90;;;;;;4975033;28;20183;-68
2021/11/28 01:06:10;;;;;;;4.00;2.57;;;1.90;99.90;;;;;;4974527;28;20921;-68
2021/11/28 01:08:35;;;;;;;3.10;2.80;;;1.90;99.90;;;;;;4974901;28;20442;-67
2021/11/28 01:11:01;;;;;;;2.80;2.60;;;1.90;99.90;;;;;;4974924;28;20176;-68
2021/11/28 01:13:26;;;;;;;3.00;2.70;;;1.90;99.90;;;;;;4974659;28;20263;-67
2021/11/28 01:15:52;;;;;;;5.43;2.70;;;1.90;99.90;;;;;;4974403;28;20251;-68
2021/11/28 01:18:17;;;;;;;4.70;3.17;;;1.90;99.90;;;;;;4974685;28;20219;-67
2021/11/28 01:20:43;;;;;;;3.70;3.40;;;1.90;99.90;;;;;;4974589;28;20172;-67
2021/11/28 01:23:09;;;;;;;4.90;3.07;;;2.00;99.90;;;;;;4974374;28;20215;-67
2021/11/28 01:25:34;;;;;;;3.60;2.57;;;2.00;99.90;;;;;;4974319;28;20200;-67
2021/11/28 01:28:00;;;;;;;4.33;2.80;;;2.00;99.90;;;;;;4975698;28;20180;-68
2021/11/28 01:30:25;;;;;;;4.27;2.93;;;2.00;99.90;;;;;;4993124;28;20197;-68
2021/11/28 01:32:51;;;;;;;8.57;3.17;;;2.00;99.90;;;;;;4993739;28;20203;-69
2021/11/28 01:35:17;;;;;;;4.07;3.37;;;2.10;99.90;;;;;;4992604;28;20182;-68
2021/11/28 01:37:44;;;;;;;5.10;3.30;;;2.10;99.90;;;;;;4993051;28;20634;-68
2021/11/28 01:40:18;;;;;;;6.33;3.17;;;2.10;99.90;;;;;;4993889;28;20477;-69
2021/11/28 01:42:48;;;;;;;4.20;3.40;;;2.10;99.90;;;;;;4993589;28;20446;-68
2021/11/28 01:45:26;;;;;;;6.80;3.03;;;2.20;99.90;;;;;;4993354;28;20800;-68
2021/11/28 01:47:54;;;;;;;3.63;3.20;;;2.10;99.90;;;;;;4993509;28;20906;-68
2021/11/28 01:50:21;;;;;;;3.20;2.83;;;2.10;99.90;;;;;;4993553;28;20426;-68
2021/11/28 01:52:47;;;;;;;11.13;3.63;;;2.00;99.90;;;;;;4993366;28;20438;-68
2021/11/28 01:55:20;;;;;;;4.47;3.27;;;2.00;99.90;;;;;;4993094;28;20485;-68
2021/11/28 01:57:47;;;;;;;3.70;3.00;;;2.00;99.90;;;;;;4993512;28;20230;-68
2021/11/28 02:00:16;;;;;;;4.53;3.43;;;2.00;99.90;;;;;;4993348;28;20843;-68
2021/11/28 02:02:43;;;;;;;4.60;3.60;;;2.00;99.90;;;;;;4993127;28;20936;-68
2021/11/28 02:05:09;;;;;;;7.13;3.40;;;2.00;99.90;;;;;;4992992;28;20446;-68
2021/11/28 02:07:35;;;;;;;6.30;2.90;;;2.00;99.90;;;;;;4993474;28;20418;-68
2021/11/28 02:10:03;;;;;;;3.50;2.63;;;2.00;99.90;;;;;;4993174;28;20427;-69
2021/11/28 02:12:30;;;;;;;5.30;2.90;;;1.90;99.90;;;;;;4993142;28;20568;-68
2021/11/28 02:15:00;;;;;;;5.30;3.77;;;2.00;99.90;;;;;;4992860;28;20501;-69
2021/11/28 02:17:26;;;;;;;5.47;3.10;;;2.00;99.90;;;;;;4993209;28;20426;-68
2021/11/28 02:19:52;;;;;;;5.10;3.37;;;2.00;99.90;;;;;;4993045;28;20463;-68
2021/11/28 02:22:17;;;;;;;4.90;3.33;;;2.00;99.90;;;;;;4992893;28;20792;-68
2021/11/28 02:24:44;;;;;;;5.00;3.33;;;2.00;99.90;;;;;;4992950;28;20944;-68
2021/11/28 02:27:09;;;;;;;4.23;3.60;;;2.00;99.90;;;;;;4992683;28;20625;-68
2021/11/28 02:29:38;;;;;;;3.63;3.30;;;2.00;99.90;;;;;;4992793;28;20429;-68
2021/11/28 02:32:04;;;;;;;3.97;3.57;;;2.10;99.90;;;;;;4992388;28;20195;-68
2021/11/28 02:34:30;;;;;;;4.10;3.30;;;2.00;99.90;;;;;;4992738;28;20470;-68
2021/11/28 02:36:55;;;;;;;5.57;3.47;;;2.00;99.90;;;;;;4992618;28;20426;-68
2021/11/28 02:39:21;;;;;;;4.33;3.60;;;2.10;99.90;;;;;;4992749;28;20171;-68
2021/11/28 02:41:48;;;;;;;3.80;3.47;;;2.10;99.90;;;;;;4992712;28;20223;-68
2021/11/28 02:44:15;;;;;;;4.87;3.10;;;2.10;99.90;;;;;;4992605;28;20179;-68
2021/11/28 02:46:41;;;;;;;4.13;3.40;;;2.00;99.90;;;;;;4992348;28;20423;-68
2021/11/28 02:49:07;;;;;;;3.30;3.00;;;2.10;99.90;;;;;;4992677;28;20978;-68
2021/11/28 02:51:34;;;;;;;4.63;2.50;;;2.10;99.90;;;;;;4992578;28;20423;-68
2021/11/28 02:54:00;;;;;;;2.97;2.77;;;2.10;99.90;;;;;;4992548;28;20687;-68
2021/11/28 02:56:26;;;;;;;3.73;2.30;;;2.10;99.90;;;;;;4992288;28;20435;-68
2021/11/28 02:58:51;;;;;;;8.33;3.20;;;2.10;99.90;;;;;;4992386;28;20427;-68
2021/11/28 03:01:19;;;;;;;3.37;2.60;;;2.20;99.90;;;;;;4992591;28;20255;-69
2021/11/28 03:03:46;;;;;;;4.47;3.40;;;2.20;99.90;;;;;;4992514;28;20171;-68
2021/11/28 03:06:12;;;;;;;6.00;2.67;;;2.20;99.90;;;;;;4992187;28;20430;-68
2021/11/28 03:08:37;;;;;;;3.40;2.60;;;2.20;99.90;;;;;;4992462;28;20442;-68
2021/11/28 03:11:04;;;;;;;7.27;3.40;;;2.30;99.90;;;;;;4992526;28;20179;-69
2021/11/28 03:13:36;;;;;;;3.40;3.10;;;2.20;99.90;;;;;;4992157;28;20203;-69
2021/11/28 03:16:07;;;;;;;6.33;4.03;;;2.20;99.90;;;;;;4992152;28;20920;-68
2021/11/28 03:18:34;;;;;;;6.33;3.50;;;2.20;99.90;;;;;;4992378;28;20896;-68
2021/11/28 03:21:04;;;;;;;4.60;2.87;;;2.20;99.90;;;;;;4992376;28;20418;-68
2021/11/28 03:23:31;;;;;;;3.63;3.33;;;2.20;99.90;;;;;;4992168;28;20513;-68
2021/11/28 03:26:09;;;;;;;3.50;2.93;;;2.30;99.90;;;;;;4991992;28;20473;-68
2021/11/28 03:28:38;;;;;;;3.03;2.60;;;2.30;99.90;;;;;;4992377;28;20886;-68
2021/11/28 03:31:05;;;;;;;3.80;2.43;;;2.30;99.90;;;;;;4992219;28;20435;-68
2021/11/28 03:33:31;;;;;;;5.17;3.40;;;2.20;99.90;;;;;;4992278;28;20517;-69
2021/11/28 03:35:56;;;;;;;4.40;2.27;;;2.30;99.90;;;;;;4991961;28;20506;-68
2021/11/28 03:38:22;;;;;;;2.43;2.23;;;2.30;99.90;;;;;;4992108;28;20510;-68
2021/11/28 03:40:47;;;;;;;9.30;2.80;;;2.40;99.90;;;;;;4992288;28;20176;-68
2021/11/28 03:43:13;;;;;;;2.83;2.63;;;2.40;99.90;;;;;;4992068;28;20196;-68
2021/11/28 03:45:38;;;;;;;4.63;3.13;;;2.50;99.90;;;;;;4994717;28;20186;-68
2021/11/28 03:48:04;;;;;;;3.77;2.40;;;2.40;99.90;;;;;;4995791;28;20180;-68
2021/11/28 03:50:29;;;;;;;3.63;2.97;;;2.40;99.90;;;;;;4995743;28;20183;-69
2021/11/28 03:52:56;;;;;;;4.03;3.50;;;2.40;99.90;;;;;;4995425;28;20228;-69
2021/11/28 03:55:23;;;;;;;3.87;3.10;;;2.40;99.90;;;;;;4995475;28;20422;-68
2021/11/28 03:57:49;;;;;;;3.70;2.70;;;2.40;99.90;;;;;;4995645;28;20171;-69
2021/11/28 04:00:15;;;;;;;4.57;2.80;;;2.40;99.90;;;;;;4995623;28;20480;-68
2021/11/28 04:02:41;;;;;;;3.93;2.80;;;2.40;99.90;;;;;;4995453;28;20194;-68
2021/11/28 04:05:08;;;;;;;3.90;2.97;;;2.30;99.90;;;;;;4995223;28;20886;-69
2021/11/28 04:07:33;;;;;;;3.10;2.43;;;2.20;99.90;;;;;;4995342;28;20187;-68
2021/11/28 04:09:59;;;;;;;3.40;3.10;;;2.10;99.90;;;;;;4995500;28;20772;-68
2021/11/28 04:12:25;;;;;;;4.43;3.27;;;2.10;99.90;;;;;;4995355;28;20187;-69
2021/11/28 04:14:51;;;;;;;5.00;3.57;;;2.10;99.90;;;;;;4995342;28;20475;-68
2021/11/28 04:17:17;;;;;;;7.07;2.90;;;2.10;99.90;;;;;;4995095;28;20180;-68
2021/11/28 04:19:42;;;;;;;4.43;2.83;;;2.20;99.90;;;;;;4995374;28;20423;-68
2021/11/28 04:22:08;;;;;;;3.00;2.40;;;2.20;99.90;;;;;;4994944;28;20215;-68
2021/11/28 04:24:34;;;;;;;6.57;3.80;;;2.30;99.90;;;;;;4995212;28;20306;-68
2021/11/28 04:26:59;;;;;;;4.23;2.83;;;2.40;99.90;;;;;;4994826;28;20668;-68
2021/11/28 04:29:25;;;;;;;3.20;2.60;;;2.30;99.90;;;;;;4995155;28;20259;-68
2021/11/28 04:31:51;;;;;;;4.10;3.20;;;2.30;99.90;;;;;;4995139;28;20200;-68
2021/11/28 04:34:17;;;;;;;3.60;2.30;;;2.40;99.90;;;;;;4994925;28;20470;-68
2021/11/28 04:36:43;;;;;;;4.30;3.50;;;2.40;99.90;;;;;;4994628;28;20263;-68
2021/11/28 04:39:09;;;;;;;3.07;2.70;;;2.50;99.90;;;;;;4994851;28;20176;-67
2021/11/28 04:41:35;;;;;;;3.00;2.70;;;2.50;99.90;;;;;;4994794;28;20421;-67
2021/11/28 04:44:01;;;;;;;2.90;2.67;;;2.50;99.90;;;;;;4994837;28;20419;-69
2021/11/28 04:46:26;;;;;;;3.50;3.20;;;2.60;99.90;;;;;;4994547;28;20190;-68
2021/11/28 04:48:52;;;;;;;2.27;2.07;;;2.60;99.90;;;;;;4994720;28;20427;-68
2021/11/28 04:51:17;;;;;;;4.93;2.73;;;2.70;99.90;;;;;;4994626;28;20198;-67
2021/11/28 04:53:43;;;;;;;4.20;2.57;;;2.70;99.90;;;;;;4994565;28;20210;-68
2021/11/28 04:56:08;;;;;;;4.10;3.00;;;2.70;99.90;;;;;;4993911;28;20172;-68
2021/11/28 04:58:34;;;;;;;3.10;2.40;;;2.60;99.90;;;;;;4994625;28;20168;-68
2021/11/28 05:00:59;;;;;;;3.73;2.90;;;2.60;99.90;;;;;;4994618;28;20543;-69
2021/11/28 05:03:25;;;;;;;2.90;2.60;;;2.60;99.90;;;;;;4994436;28;20249;-67
2021/11/28 05:05:50;;;;;;;3.80;2.60;;;2.70;99.90;;;;;;4994126;28;20592;-68
2021/11/28 05:08:16;;;;;;;4.33;2.70;;;2.70;99.90;;;;;;4994360;28;20187;-68
2021/11/28 05:10:41;;;;;;;4.60;3.40;;;2.70;99.90;;;;;;4994310;28;20180;-67
2021/11/28 05:13:07;;;;;;;5.53;3.00;;;2.60;99.90;;;;;;4994200;28;20557;-68
2021/11/28 05:15:33;;;;;;;4.13;2.57;;;2.60;99.90;;;;;;4993994;28;20245;-68
2021/11/28 05:17:58;;;;;;;3.50;3.20;;;2.60;99.90;;;;;;4994187;28;20176;-68
2021/11/28 05:20:24;;;;;;;2.97;2.70;;;2.50;99.90;;;;;;4994113;28;20175;-68
2021/11/28 05:22:49;;;;;;;4.07;2.77;;;2.50;99.90;;;;;;5017203;23;20282;-64
2021/11/28 05:25:15;;;;;;;2.87;2.30;;;2.50;99.90;;;;;;4993220;28;20696;-64
2021/11/28 05:27:42;;;;;;;5.80;2.37;;;2.50;99.90;;;;;;4993897;28;20624;-64
2021/11/28 05:30:08;;;;;;;3.47;2.80;;;2.50;99.90;;;;;;4993835;28;20518;-64
2021/11/28 05:32:34;;;;;;;3.43;2.90;;;2.50;99.90;;;;;;4993773;28;20517;-64
2021/11/28 05:34:59;;;;;;;3.00;2.70;;;2.50;99.90;;;;;;4993497;28;20975;-65
2021/11/28 05:37:25;;;;;;;2.80;2.23;;;2.50;99.90;;;;;;4993620;28;20286;-67
2021/11/28 05:39:51;;;;;;;5.97;2.70;;;2.60;99.90;;;;;;4993760;28;20179;-65
2021/11/28 05:42:16;;;;;;;3.30;2.47;;;2.50;99.90;;;;;;4993580;28;20576;-64
2021/11/28 05:44:42;;;;;;;3.00;2.40;;;2.50;99.90;;;;;;4993545;28;20171;-64
2021/11/28 05:47:07;;;;;;;4.93;3.00;;;2.60;99.90;;;;;;4993534;28;20590;-64
2021/11/28 05:49:33;;;;;;;3.40;3.10;;;2.60;99.90;;;;;;4993465;28;20175;-64
2021/11/28 05:51:59;;;;;;;3.93;2.23;;;2.50;99.90;;;;;;4993465;28;20192;-64
2021/11/28 05:54:24;;;;;;;5.07;3.17;;;2.50;99.90;;;;;;4993225;28;20208;-64
2021/11/28 05:56:50;;;;;;;4.47;2.70;;;2.40;99.90;;;;;;4993076;28;20183;-64
2021/11/28 05:59:16;;;;;;;6.97;2.87;;;2.40;99.90;;;;;;4993259;28;20164;-64
2021/11/28 06:01:42;;;;;;;4.70;3.27;;;2.50;99.90;;;;;;4993113;28;20434;-64
2021/11/28 06:04:07;;;;;;;3.83;2.70;;;2.50;99.90;;;;;;4993297;28;20164;-65
2021/11/28 06:06:33;;;;;;;3.70;2.30;;;2.50;99.90;;;;;;4991207;28;20262;-64
2021/11/28 06:08:59;;;;;;;5.23;2.83;;;2.50;99.90;;;;;;4992804;28;20176;-64
2021/11/28 06:11:24;;;;;;;7.43;3.10;;;2.50;99.90;;;;;;4993060;28;20182;-65
2021/11/28 06:13:50;;;;;;;3.93;2.87;;;2.40;99.90;;;;;;4993311;28;20199;-64
2021/11/28 06:16:15;;;;;;;3.80;2.90;;;2.40;99.90;;;;;;4992769;28;20222;-65
2021/11/28 06:18:41;;;;;;;4.60;3.37;;;2.40;99.90;;;;;;4993024;28;20164;-65
2021/11/28 06:21:07;;;;;;;3.23;2.80;;;2.50;99.90;;;;;;4992984;28;20210;-65
2021/11/28 06:23:32;;;;;;;6.53;3.03;;;2.50;99.90;;;;;;4992677;28;20219;-65
2021/11/28 06:25:58;;;;;;;5.53;2.20;;;2.60;99.90;;;;;;4992021;28;20172;-65
2021/11/28 06:28:25;;;;;;;3.40;2.13;;;2.60;99.90;;;;;;4992868;28;20258;-65
2021/11/28 06:30:50;;;;;;;5.43;2.90;;;2.60;99.90;;;;;;4992828;28;20768;-65
2021/11/28 06:33:17;;;;;;;3.23;2.63;;;2.50;99.90;;;;;;4992693;28;20476;-66
2021/11/28 06:35:42;;;;;;;4.00;2.70;;;2.50;99.90;;;;;;4992596;28;20159;-65
2021/11/28 06:38:08;;;;;;;2.33;2.13;;;2.50;99.90;;;;;;4992129;28;20927;-65
2021/11/28 06:40:33;;;;;;;2.87;2.57;;;2.50;99.90;;;;;;4992680;28;20171;-65
2021/11/28 06:42:59;;;;;;;2.40;2.20;;;2.50;99.90;;;;;;4992644;28;20192;-65
2021/11/28 06:45:25;;;;;;;2.57;2.27;;;2.60;99.90;;;;;;4992404;28;20572;-65
2021/11/28 06:47:50;;;;;;;3.90;2.93;;;2.60;99.90;;;;;;4992768;28;20254;-65
2021/11/28 06:50:17;;;;;;;4.00;2.63;;;2.60;99.90;;;;;;4992591;28;20171;-65
2021/11/28 06:52:43;;;;;;;4.00;2.70;;;2.60;99.90;;;;;;4992423;28;20211;-65
2021/11/28 06:55:08;;;;;;;5.10;2.30;;;2.60;99.90;;;;;;4992127;28;20490;-65
2021/11/28 06:57:34;;;;;;;3.57;2.30;;;2.60;99.90;;;;;;4992543;28;20651;-65
2021/11/28 06:59:59;;;;;;;3.77;2.37;;;2.50;99.90;;;;;;4992487;28;20677;-65
2021/11/28 07:02:25;;;;;;;2.60;2.40;;;2.50;99.90;;;;;;4992375;28;20191;-64
2021/11/28 07:04:50;;;;;;;4.03;2.53;;;2.60;99.90;;;;;;4992446;28;20182;-64
2021/11/28 07:07:16;;;;;;;3.13;2.27;;;2.60;99.90;;;;;;4992130;28;20191;-65
2021/11/28 07:09:41;;;;;;;2.70;2.50;;;2.60;99.90;;;;;;4992442;28;20650;-64
2021/11/28 07:12:07;;;;;;;4.70;2.93;;;2.70;99.90;;;;;;4992350;28;20191;-65
2021/11/28 07:14:33;;;;;;;4.63;3.17;;;2.80;99.90;;;;;;4992358;28;20207;-65
2021/11/28 07:16:59;;;;;;;5.00;2.73;;;2.70;99.90;;;;;;4992071;28;20558;-65
2021/11/28 07:19:24;;;;;;;5.17;2.73;;;2.70;99.90;;;;;;4994945;28;20803;-65
2021/11/28 07:21:50;;;;;;;4.33;3.93;;;2.80;99.90;;;;;;4996022;28;20172;-65
2021/11/28 07:24:16;;;;;;;4.33;2.63;;;2.80;99.90;;;;;;4996276;28;20175;-65
2021/11/28 07:26:42;;;;;;;7.20;3.10;;;2.80;99.90;;;;;;4995909;28;20921;-64
2021/11/28 07:29:07;;;;;;;4.40;3.30;;;2.80;99.90;;;;;;4996185;28;20175;-64
2021/11/28 07:31:33;;;;;;;3.90;3.50;;;2.80;99.90;;;;;;4996065;28;20809;-65
2021/11/28 07:33:58;;;;;;;3.93;3.40;;;2.70;99.90;;;;;;4995889;28;20211;-65
2021/11/28 07:36:24;;;;;;;5.70;3.20;;;2.70;99.90;;;;;;4995663;28;20196;-65
2021/11/28 07:38:49;;;;;;;4.73;3.30;;;2.60;99.90;;;;;;4995986;28;20654;-65
2021/11/28 07:41:15;;;;;;;6.73;5.00;;;2.70;99.90;;;;;;4996131;28;20309;-64
2021/11/28 07:43:41;;;;;;;5.50;3.90;;;2.80;99.90;;;;;;4995822;28;20195;-65
2021/11/28 07:46:06;;;;;;;6.23;3.70;;;2.80;99.90;;;;;;4995623;28;20692;-65
2021/11/28 07:48:32;;;;;;;3.90;3.50;;;2.80;99.90;;;;;;4995728;28;20171;-65
2021/11/28 07:50:58;;;;;;;6.93;4.73;;;2.70;99.90;;;;;;4995625;28;20543;-65
2021/11/28 07:53:27;;;;;;;6.40;3.80;;;2.70;99.90;;;;;;4995592;28;20696;-65
2021/11/28 07:55:53;;;;;;;7.83;5.60;;;2.60;99.90;;;;;;4995574;28;20418;-65
2021/11/28 07:58:18;;;;;;;8.67;7.00;;;2.60;99.90;;;;;;4995759;28;20985;-65
2021/11/28 08:00:44;;;;;;;4.50;3.90;;;2.60;99.90;;;;;;4995833;28;20625;-64
2021/11/28 08:03:09;;;;;;;6.13;3.77;;;2.60;99.90;;;;;;4995754;28;20289;-65
2021/11/28 08:05:35;;;;;;;4.03;3.10;;;2.60;99.90;;;;;;4995342;28;20183;-65
2021/11/28 08:08:01;;;;;;;4.17;3.20;;;2.60;99.90;;;;;;4995594;28;20186;-64
2021/11/28 08:10:27;;;;;;;3.30;3.00;;;2.70;99.90;;;;;;4995590;28;20437;-64
2021/11/28 08:12:53;;;;;;;7.13;3.57;;;2.80;99.90;;;;;;4995366;28;20286;-64
2021/11/28 08:15:19;;;;;;;2.80;2.60;;;2.80;99.90;;;;;;4995217;28;20633;-64
2021/11/28 08:17:48;;;;;;;4.17;2.83;;;2.90;99.90;;;;;;4995360;28;20230;-64
2021/11/28 08:20:16;;;;;;;5.23;3.00;;;3.00;99.90;;;;;;4995281;28;20498;-65
2021/11/28 08:22:42;;;;;;;4.50;3.87;;;3.00;99.90;;;;;;4995303;28;20462;-65
2021/11/28 08:25:10;;;;;;;3.30;2.90;;;3.10;99.90;;;;;;4994972;28;20419;-64
2021/11/28 08:27:36;;;;;;;5.30;4.27;;;3.00;99.90;;;;;;4993931;28;20179;-64
2021/11/28 08:30:09;;;;;;;3.80;3.37;;;3.00;99.90;;;;;;4994477;28;20418;-64
2021/11/28 08:32:34;;;;;;;3.90;2.90;;;3.10;99.90;;;;;;4995089;28;20821;-64
2021/11/28 08:35:00;;;;;;;7.00;3.00;;;3.20;99.90;;;;;;4994721;28;20454;-65
2021/11/28 08:37:26;;;;;;;4.77;3.50;;;3.20;99.90;;;;;;4995062;28;20172;-64
2021/11/28 08:39:51;;;;;;;3.90;3.17;;;3.10;99.90;;;;;;4994995;28;20168;-65
2021/11/28 08:42:17;;;;;;;3.70;3.40;;;3.10;99.90;;;;;;4994899;28;20266;-64
2021/11/28 08:44:42;;;;;;;3.47;3.17;;;2.90;99.90;;;;;;4994818;28;20180;-64
2021/11/28 08:47:08;;;;;;;4.10;3.03;;;3.00;99.90;;;;;;4994632;28;20266;-64
2021/11/28 08:49:34;;;;;;;4.63;2.80;;;3.00;99.90;;;;;;4994707;28;20175;-65
2021/11/28 08:52:00;;;;;;;6.63;5.13;;;3.00;99.90;;;;;;4994722;28;20697;-64
2021/11/28 08:54:30;;;;;;;4.40;3.23;;;3.10;99.90;;;;;;4994660;28;20462;-64
2021/11/28 08:56:56;;;;;;;3.67;3.20;;;3.20;99.90;;;;;;4993971;28;20168;-65
2021/11/28 08:59:21;;;;;;;3.53;3.13;;;3.30;99.90;;;;;;4994603;28;20423;-65
2021/11/28 09:01:47;;;;;;;4.00;2.87;;;3.40;99.90;;;;;;4994528;28;20423;-65
2021/11/28 09:04:12;;;;;;;4.43;3.03;;;3.50;99.90;;;;;;4994509;28;20183;-64
2021/11/28 09:06:38;;;;;;;4.37;3.63;;;3.60;99.90;;;;;;4984527;28;20199;-64
2021/11/28 09:09:04;;;;;;;8.80;3.53;;;3.60;99.90;;;;;;4990870;28;20184;-64
2021/11/28 09:11:30;;;;;;;4.80;3.20;;;3.70;99.90;;;;;;4991060;28;20188;-64
2021/11/28 09:13:56;;;;;;;4.10;3.53;;;3.70;99.90;;;;;;4991006;28;20579;-64
2021/11/28 09:16:21;;;;;;;3.73;3.03;;;3.70;99.90;;;;;;4991279;28;20422;-64
2021/11/28 09:18:51;;;;;;;4.20;3.90;;;3.80;99.90;;;;;;4990970;28;20176;-65
2021/11/28 09:21:17;;;;;;;11.47;5.53;;;3.90;99.90;;;;;;4979314;28;20176;-65
2021/11/28 09:26:29;;;;;;;8.87;6.70;;;4.00;99.90;;;;;;4974347;28;20829;-64
2021/11/28 09:28:55;;;;;;;9.70;7.10;;;4.00;99.90;;;;;;4985746;28;20427;-65
2021/11/28 09:31:20;;;;;;;9.73;8.17;;;4.00;99.90;;;;;;4993635;28;20929;-65
2021/11/28 09:33:46;;;;;;;8.20;7.20;;;4.00;99.90;;;;;;4993680;28;20208;-65
2021/11/28 09:36:12;;;;;;;19.97;15.30;;;3.90;99.90;;;;;;4993554;28;20291;-65
2021/11/28 09:38:38;;;;;;;10.27;7.67;;;3.70;99.90;;;;;;4993622;28;20164;-64
2021/11/28 09:41:07;;;;;;;6.57;5.97;;;3.60;99.90;;;;;;4993246;28;20415;-64
2021/11/28 09:43:35;;;;;;;5.90;4.93;;;3.70;99.90;;;;;;4992670;28;20282;-64
2021/11/28 09:46:04;;;;;;;6.63;5.13;;;3.60;99.90;;;;;;4993702;28;20477;-64
2021/11/28 09:48:32;;;;;;;7.03;4.20;;;3.70;99.90;;;;;;4992645;28;20427;-65
2021/11/28 09:50:58;;;;;;;7.30;4.50;;;3.70;99.90;;;;;;4993738;28;20823;-64
2021/11/28 09:53:23;;;;;;;6.43;3.97;;;3.70;99.90;;;;;;4993582;28;20459;-65
2021/11/28 09:55:50;;;;;;;4.20;3.20;;;3.80;99.90;;;;;;4993362;28;20176;-66
2021/11/28 09:58:16;;;;;;;5.17;4.43;;;3.80;99.90;;;;;;4993614;28;20172;-66
2021/11/28 10:00:42;;;;;;;4.80;3.67;;;3.90;99.90;;;;;;4993738;28;20411;-65
2021/11/28 10:03:08;;;;;;;8.73;6.17;;;3.90;99.90;;;;;;4993345;28;20832;-65
2021/11/28 10:05:33;;;;;;;7.20;3.70;;;4.00;99.90;;;;;;4993049;28;20262;-65
2021/11/28 10:07:59;;;;;;;4.77;4.00;;;4.10;99.90;;;;;;4993329;28;20164;-65
2021/11/28 10:10:25;;;;;;;5.30;3.60;;;4.30;99.90;;;;;;4993588;28;20254;-65
2021/11/28 10:12:52;;;;;;;7.53;3.50;;;4.40;99.90;;;;;;4993178;28;20195;-65
2021/11/28 10:15:21;;;;;;;4.30;3.13;;;4.50;99.90;;;;;;4993134;28;20195;-65
2021/11/28 10:17:47;;;;;;;3.70;3.40;;;4.40;99.90;;;;;;4993147;28;20419;-65
2021/11/28 10:20:16;;;;;;;6.70;4.13;;;4.50;99.90;;;;;;4993060;28;20418;-64
2021/11/28 10:22:42;;;;;;;4.00;3.23;;;4.80;99.90;;;;;;4991557;28;20841;-64
2021/11/28 10:25:16;;;;;;;7.23;3.70;;;5.00;99.90;;;;;;4992679;28;21077;-64
2021/11/28 10:27:53;;;;;;;4.73;4.10;;;5.10;99.90;;;;;;4993210;28;20419;-64
2021/11/28 10:30:28;;;;;;;4.87;3.83;;;5.30;99.90;;;;;;4993068;28;20504;-65
2021/11/28 10:32:56;;;;;;;3.43;3.13;;;5.20;99.90;;;;;;4992925;28;20488;-66
2021/11/28 10:35:22;;;;;;;3.93;3.27;;;5.20;99.90;;;;;;4992720;28;20431;-65
2021/11/28 10:37:53;;;;;;;3.37;3.13;;;5.10;99.90;;;;;;4992731;28;20850;-66
2021/11/28 10:40:27;;;;;;;3.33;3.03;;;5.00;99.90;;;;;;4993149;28;20494;-65
2021/11/28 10:43:13;;;;;;;3.63;3.33;;;5.00;99.90;;;;;;4992759;28;20442;-65
2021/11/28 10:45:47;;;;;;;3.87;2.80;;;4.80;99.90;;;;;;4992792;28;20457;-65
2021/11/28 10:48:13;;;;;;;6.37;4.23;;;4.80;99.90;;;;;;4992660;28;20783;-65
2021/11/28 10:50:39;;;;;;;8.70;5.03;;;4.70;99.90;;;;;;4992695;28;20505;-65
2021/11/28 10:53:16;;;;;;;3.73;3.33;;;4.60;99.90;;;;;;4992163;28;20514;-65
2021/11/28 10:55:49;;;;;;;4.50;3.57;;;4.50;99.90;;;;;;4992548;28;20167;-65
2021/11/28 10:58:19;;;;;;;4.17;3.03;;;4.40;99.90;;;;;;4992794;28;20415;-66
2021/11/28 11:00:45;;;;;;;4.33;3.47;;;4.50;99.90;;;;;;4993214;28;20422;-66
2021/11/28 11:03:26;;;;;;;3.53;2.77;;;4.50;99.90;;;;;;4992608;28;20496;-65
2021/11/28 11:05:54;;;;;;;4.50;3.07;;;4.50;99.90;;;;;;4991094;28;20202;-65
2021/11/28 11:08:26;;;;;;;3.13;2.83;;;4.60;99.90;;;;;;4992757;28;20461;-66
2021/11/28 11:11:07;;;;;;;3.13;2.93;;;4.60;99.90;;;;;;4992793;28;20415;-64
2021/11/28 11:13:34;;;;;;;2.97;2.67;;;4.70;99.90;;;;;;4992529;28;20541;-64
2021/11/28 11:16:02;;;;;;;3.90;3.43;;;4.80;99.90;;;;;;4992143;28;20998;-64
2021/11/28 11:18:27;;;;;;;4.40;3.80;;;4.80;99.90;;;;;;4992416;28;20486;-65
2021/11/28 11:21:03;;;;;;;3.93;3.20;;;4.90;99.90;;;;;;4992646;28;20818;-65
2021/11/28 11:23:32;;;;;;;2.67;2.47;;;5.10;99.90;;;;;;4992645;28;20210;-65
2021/11/28 11:26:16;;;;;;;4.67;3.07;;;5.10;99.90;;;;;;4992184;28;20528;-65
2021/11/28 11:29:02;;;;;;;3.03;2.57;;;5.00;99.90;;;;;;4992658;28;20898;-64
2021/11/28 11:31:28;;;;;;;4.20;3.20;;;5.10;99.90;;;;;;4992551;28;20422;-65
2021/11/28 11:33:54;;;;;;;5.10;3.87;;;5.20;99.90;;;;;;4992549;28;20458;-65
2021/11/28 11:36:19;;;;;;;3.73;3.40;;;5.10;99.90;;;;;;4992491;28;20421;-65
2021/11/28 11:38:46;;;;;;;3.73;2.83;;;5.20;99.90;;;;;;4992652;28;20175;-64
2021/11/28 11:41:11;;;;;;;2.73;2.47;;;5.30;99.90;;;;;;4992265;28;20179;-64
2021/11/28 11:43:39;;;;;;;2.73;2.13;;;5.40;99.90;;;;;;4992177;28;20435;-65
2021/11/28 11:46:08;;;;;;;1.70;1.60;;;5.40;99.90;;;;;;4991893;28;20174;-65
2021/11/28 11:48:35;;;;;;;3.63;2.23;;;5.40;99.90;;;;;;4991753;28;20430;-65
2021/11/28 11:51:02;;;;;;;1.70;1.60;;;5.40;99.90;;;;;;4992114;28;20414;-65
2021/11/28 11:53:28;;;;;;;3.60;2.53;;;5.40;99.90;;;;;;4991558;28;20458;-64
2021/11/28 11:55:53;;;;;;;4.43;2.60;;;5.30;99.90;;;;;;4991641;28;20429;-64
2021/11/28 11:58:57;;;;;;;3.57;3.00;;;5.20;99.90;;;;;;4991640;28;20546;-65
2021/11/28 12:01:27;;;;;;;7.63;6.10;;;5.20;99.90;;;;;;4988747;28;20214;-65
2021/11/28 12:03:54;;;;;;;6.30;4.87;;;5.10;99.90;;;;;;4991288;28;20998;-65
2021/11/28 12:06:46;;;;;;;3.90;3.50;;;5.00;99.90;;;;;;4993935;28;20422;-64
2021/11/28 12:09:32;;;;;;;4.47;4.03;;;4.80;99.90;;;;;;4995444;28;20414;-65
2021/11/28 12:12:10;;;;;;;4.07;3.77;;;4.70;99.90;;;;;;4995524;28;20540;-65
2021/11/28 12:14:37;;;;;;;4.30;3.10;;;4.50;99.90;;;;;;4995268;28;20454;-64
2021/11/28 12:17:37;;;;;;;5.40;3.90;;;4.40;99.90;;;;;;4995203;28;20458;-64
2021/11/28 12:20:04;;;;;;;4.70;4.30;;;4.30;99.90;;;;;;4995299;28;20414;-65
2021/11/28 12:22:41;;;;;;;5.30;4.17;;;4.30;99.90;;;;;;4995348;28;20496;-65
2021/11/28 12:25:38;;;;;;;6.40;4.30;;;4.40;99.90;;;;;;4995037;28;20461;-64
2021/11/28 12:28:34;;;;;;;4.50;4.10;;;4.40;99.90;;;;;;4995211;28;20419;-65
2021/11/28 12:31:03;;;;;;;6.27;4.10;;;4.50;99.90;;;;;;4982859;28;20446;-65
2021/11/28 12:33:53;;;;;;;5.40;4.90;;;4.60;99.90;;;;;;4994940;28;20459;-65
2021/11/28 12:39:09;;;;;;;8.50;5.80;;;4.60;99.90;;;;;;4995234;28;20429;-65
2021/11/28 12:41:44;;;;;;;4.97;4.57;;;4.60;99.90;;;;;;4995009;28;20423;-65
2021/11/28 12:44:13;;;;;;;5.83;5.00;;;4.60;99.90;;;;;;4994900;28;20417;-65
2021/11/28 12:46:40;;;;;;;3.80;3.50;;;4.60;99.90;;;;;;4994533;28;20853;-65
2021/11/28 12:49:24;;;;;;;3.50;3.20;;;4.60;99.90;;;;;;4994263;28;20446;-65
2021/11/28 12:51:50;;;;;;;4.33;3.93;;;4.60;99.90;;;;;;4994738;28;20927;-65
2021/11/28 12:54:26;;;;;;;7.47;5.23;;;4.80;99.90;;;;;;4994628;28;20443;-65
2021/11/28 12:57:18;;;;;;;4.00;3.60;;;4.90;99.90;;;;;;4994419;28;20523;-65
2021/11/28 13:00:27;;;;;;;3.60;3.30;;;4.90;99.90;;;;;;4986351;28;20507;-65
2021/11/28 13:03:08;;;;;;;3.57;3.27;;;4.90;99.90;;;;;;4994518;28;20442;-65
2021/11/28 13:05:39;;;;;;;3.27;3.00;;;5.00;99.90;;;;;;4994173;28;20427;-65
2021/11/28 13:08:05;;;;;;;3.10;2.80;;;5.00;99.90;;;;;;4994499;28;20439;-65
2021/11/28 13:10:36;;;;;;;4.60;3.50;;;5.00;99.90;;;;;;4994388;28;20493;-65